sensor_id;sensor_type;location;lat;lon;timestamp;pressure;altitude;pressure_sealevel;temperature;humidity
67345;BME280;54230;52.402;6.276;2024-02-26T00:00:00;100120.0;;;7.0;73.9
67345;BME280;54230;52.402;6.276;2024-02-26T00:05:00;100120.0;;;6.9;74.2
67345;BME280;54230;52.402;6.276;2024-02-26T00:10:00;100110.0;;;6.8;74.5
67345;BME280;54230;52.402;6.276;2024-02-26T00:15:00;100110.0;;;6.8;74.8
67345;BME280;54230;52.402;6.276;2024-02-26T00:20:01;100110.0;;;6.9;75.0
67345;BME280;54230;52.402;6.276;2024-02-26T00:25:00;100120.0;;;6.9;75.2
67345;BME280;54230;52.402;6.276;2024-02-26T00:30:00;100120.0;;;7.0;75.0
67345;BME280;54230;52.402;6.276;2024-02-26T00:35:00;100120.0;;;7.0;74.9
67345;BME280;54230;52.402;6.276;2024-02-26T00:40:00;100130.0;;;7.0;74.8
67345;BME280;54230;52.402;6.276;2024-02-26T00:45:00;100130.0;;;7.0;74.8
67345;BME280;54230;52.402;6.276;2024-02-26T00:50:00;100130.0;;;6.9;74.8
67345;BME280;54230;52.402;6.276;2024-02-26T00:55:01;100130.0;;;6.9;74.8
67345;BME280;54230;52.402;6.276;2024-02-26T01:00:00;100140.0;;;6.8;74.8
67345;BME280;54230;52.402;6.276;2024-02-26T01:05:00;100130.0;;;6.7;74.9
67345;BME280;54230;52.402;6.276;2024-02-26T01:10:00;100140.0;;;6.6;74.9
67345;BME280;54230;52.402;6.276;2024-02-26T01:15:00;100140.0;;;6.6;75.1
67345;BME280;54230;52.402;6.276;2024-02-26T01:20:00;100150.0;;;6.5;75.1
67345;BME280;54230;52.402;6.276;2024-02-26T01:25:00;100140.0;;;6.5;75.0
67345;BME280;54230;52.402;6.276;2024-02-26T01:30:00;100140.0;;;6.5;75.1
67345;BME280;54230;52.402;6.276;2024-02-26T01:35:00;100140.0;;;6.4;74.8
67345;BME280;54230;52.402;6.276;2024-02-26T01:40:00;100140.0;;;6.3;74.9
67345;BME280;54230;52.402;6.276;2024-02-26T01:45:00;100140.0;;;6.3;75.3
67345;BME280;54230;52.402;6.276;2024-02-26T01:50:00;100130.0;;;6.3;75.6
67345;BME280;54230;52.402;6.276;2024-02-26T01:55:00;100130.0;;;6.2;75.8
67345;BME280;54230;52.402;6.276;2024-02-26T02:00:00;100130.0;;;6.1;76.5
67345;BME280;54230;52.402;6.276;2024-02-26T02:05:00;100120.0;;;6.1;76.8
67345;BME280;54230;52.402;6.276;2024-02-26T02:10:00;100120.0;;;6.1;77.3
67345;BME280;54230;52.402;6.276;2024-02-26T02:15:01;100140.0;;;6.1;77.5
67345;BME280;54230;52.402;6.276;2024-02-26T02:20:00;100150.0;;;6.2;77.3
67345;BME280;54230;52.402;6.276;2024-02-26T02:25:00;100160.0;;;6.3;76.7
67345;BME280;54230;52.402;6.276;2024-02-26T02:30:00;100170.0;;;6.4;76.2
67345;BME280;54230;52.402;6.276;2024-02-26T02:35:00;100170.0;;;6.4;76.0
67345;BME280;54230;52.402;6.276;2024-02-26T02:40:00;100160.0;;;6.4;76.4
67345;BME280;54230;52.402;6.276;2024-02-26T02:45:00;100160.0;;;6.4;76.7
67345;BME280;54230;52.402;6.276;2024-02-26T02:50:00;100170.0;;;6.4;76.7
67345;BME280;54230;52.402;6.276;2024-02-26T02:55:00;100170.0;;;6.3;77.1
67345;BME280;54230;52.402;6.276;2024-02-26T03:00:00;100170.0;;;6.4;76.9
67345;BME280;54230;52.402;6.276;2024-02-26T03:05:00;100180.0;;;6.4;76.6
67345;BME280;54230;52.402;6.276;2024-02-26T03:10:00;100180.0;;;6.4;76.8
67345;BME280;54230;52.402;6.276;2024-02-26T03:15:00;100190.0;;;6.4;76.7
67345;BME280;54230;52.402;6.276;2024-02-26T03:20:00;100190.0;;;6.5;76.7
67345;BME280;54230;52.402;6.276;2024-02-26T03:25:00;100190.0;;;6.5;76.6
67345;BME280;54230;52.402;6.276;2024-02-26T03:30:00;100200.0;;;6.5;76.3
67345;BME280;54230;52.402;6.276;2024-02-26T03:35:00;100210.0;;;6.6;76.1
67345;BME280;54230;52.402;6.276;2024-02-26T03:40:00;100220.0;;;6.6;75.8
67345;BME280;54230;52.402;6.276;2024-02-26T03:45:00;100220.0;;;6.6;75.9
67345;BME280;54230;52.402;6.276;2024-02-26T03:50:00;100230.0;;;6.6;76.7
67345;BME280;54230;52.402;6.276;2024-02-26T03:55:00;100230.0;;;6.7;76.8
67345;BME280;54230;52.402;6.276;2024-02-26T04:00:00;100230.0;;;6.7;76.5
67345;BME280;54230;52.402;6.276;2024-02-26T04:05:00;100240.0;;;6.8;76.2
67345;BME280;54230;52.402;6.276;2024-02-26T04:10:00;100240.0;;;6.8;75.8
67345;BME280;54230;52.402;6.276;2024-02-26T04:15:00;100250.0;;;6.8;75.8
67345;BME280;54230;52.402;6.276;2024-02-26T04:20:00;100260.0;;;6.8;75.9
67345;BME280;54230;52.402;6.276;2024-02-26T04:25:00;100260.0;;;6.8;76.4
67345;BME280;54230;52.402;6.276;2024-02-26T04:30:00;100260.0;;;6.9;76.2
67345;BME280;54230;52.402;6.276;2024-02-26T04:35:00;100260.0;;;6.8;76.2
67345;BME280;54230;52.402;6.276;2024-02-26T04:40:00;100270.0;;;6.8;76.3
67345;BME280;54230;52.402;6.276;2024-02-26T04:45:00;100270.0;;;6.7;76.4
67345;BME280;54230;52.402;6.276;2024-02-26T04:50:00;100270.0;;;6.7;76.4
67345;BME280;54230;52.402;6.276;2024-02-26T04:55:00;100280.0;;;6.7;76.7
67345;BME280;54230;52.402;6.276;2024-02-26T05:00:00;100280.0;;;6.8;76.6
67345;BME280;54230;52.402;6.276;2024-02-26T05:05:00;100290.0;;;6.8;76.6
67345;BME280;54230;52.402;6.276;2024-02-26T05:10:00;100300.0;;;6.8;76.4
67345;BME280;54230;52.402;6.276;2024-02-26T05:15:00;100300.0;;;6.8;76.5
67345;BME280;54230;52.402;6.276;2024-02-26T05:20:00;100300.0;;;6.8;76.4
67345;BME280;54230;52.402;6.276;2024-02-26T05:25:00;100300.0;;;6.9;76.4
67345;BME280;54230;52.402;6.276;2024-02-26T05:30:00;100310.0;;;6.9;76.2
67345;BME280;54230;52.402;6.276;2024-02-26T05:35:00;100310.0;;;6.8;76.6
67345;BME280;54230;52.402;6.276;2024-02-26T05:40:00;100310.0;;;6.8;76.7
67345;BME280;54230;52.402;6.276;2024-02-26T05:45:00;100320.0;;;6.8;76.8
67345;BME280;54230;52.402;6.276;2024-02-26T05:50:00;100320.0;;;6.9;76.9
67345;BME280;54230;52.402;6.276;2024-02-26T05:55:00;100330.0;;;7.0;76.7
67345;BME280;54230;52.402;6.276;2024-02-26T06:00:00;100340.0;;;7.1;77.0
67345;BME280;54230;52.402;6.276;2024-02-26T06:05:00;100350.0;;;7.1;77.0
67345;BME280;54230;52.402;6.276;2024-02-26T06:10:00;100360.0;;;6.9;77.0
67345;BME280;54230;52.402;6.276;2024-02-26T06:15:00;100350.0;;;6.8;77.1
67345;BME280;54230;52.402;6.276;2024-02-26T06:20:00;100360.0;;;6.7;77.4
67345;BME280;54230;52.402;6.276;2024-02-26T06:25:00;100370.0;;;6.6;77.5
67345;BME280;54230;52.402;6.276;2024-02-26T06:30:00;100380.0;;;6.7;77.4
67345;BME280;54230;52.402;6.276;2024-02-26T06:35:00;100390.0;;;6.9;77.5
67345;BME280;54230;52.402;6.276;2024-02-26T06:40:00;100390.0;;;7.0;77.7
67345;BME280;54230;52.402;6.276;2024-02-26T06:45:00;100390.0;;;7.0;77.9
67345;BME280;54230;52.402;6.276;2024-02-26T06:50:00;100390.0;;;7.0;77.8
67345;BME280;54230;52.402;6.276;2024-02-26T06:55:00;100400.0;;;6.8;78.0
67345;BME280;54230;52.402;6.276;2024-02-26T07:00:00;100400.0;;;6.8;78.1
67345;BME280;54230;52.402;6.276;2024-02-26T07:05:00;100400.0;;;6.8;78.2
67345;BME280;54230;52.402;6.276;2024-02-26T07:10:00;100410.0;;;6.8;77.9
67345;BME280;54230;52.402;6.276;2024-02-26T07:15:00;100410.0;;;6.8;78.3
67345;BME280;54230;52.402;6.276;2024-02-26T07:20:00;100430.0;;;6.8;78.5
67345;BME280;54230;52.402;6.276;2024-02-26T07:25:00;100440.0;;;6.8;78.9
67345;BME280;54230;52.402;6.276;2024-02-26T07:30:00;100440.0;;;6.9;78.5
67345;BME280;54230;52.402;6.276;2024-02-26T07:35:00;100440.0;;;6.8;78.6
67345;BME280;54230;52.402;6.276;2024-02-26T07:40:00;100430.0;;;6.8;78.6
67345;BME280;54230;52.402;6.276;2024-02-26T07:45:00;100430.0;;;6.9;78.5
67345;BME280;54230;52.402;6.276;2024-02-26T07:50:00;100440.0;;;6.9;78.4
67345;BME280;54230;52.402;6.276;2024-02-26T07:55:00;100450.0;;;6.8;78.4
67345;BME280;54230;52.402;6.276;2024-02-26T08:00:00;100460.0;;;6.8;78.4
67345;BME280;54230;52.402;6.276;2024-02-26T08:05:00;100460.0;;;6.9;78.3
67345;BME280;54230;52.402;6.276;2024-02-26T08:10:00;100460.0;;;6.9;78.2
67345;BME280;54230;52.402;6.276;2024-02-26T08:15:00;100480.0;;;7.1;77.8
67345;BME280;54230;52.402;6.276;2024-02-26T08:20:00;100480.0;;;7.1;77.8
67345;BME280;54230;52.402;6.276;2024-02-26T08:25:00;100490.0;;;7.2;77.5
67345;BME280;54230;52.402;6.276;2024-02-26T08:30:00;100490.0;;;7.2;77.5
67345;BME280;54230;52.402;6.276;2024-02-26T08:35:00;100490.0;;;7.2;77.7
67345;BME280;54230;52.402;6.276;2024-02-26T08:40:00;100500.0;;;7.2;77.8
67345;BME280;54230;52.402;6.276;2024-02-26T08:45:00;100490.0;;;7.2;77.9
67345;BME280;54230;52.402;6.276;2024-02-26T08:50:00;100510.0;;;7.2;78.0
67345;BME280;54230;52.402;6.276;2024-02-26T08:55:00;100510.0;;;7.2;77.9
67345;BME280;54230;52.402;6.276;2024-02-26T09:00:00;100500.0;;;7.2;78.3
67345;BME280;54230;52.402;6.276;2024-02-26T09:05:00;100510.0;;;7.2;78.5
67345;BME280;54230;52.402;6.276;2024-02-26T09:10:00;100520.0;;;7.3;78.1
67345;BME280;54230;52.402;6.276;2024-02-26T09:15:00;100530.0;;;7.4;77.7
67345;BME280;54230;52.402;6.276;2024-02-26T09:20:01;100530.0;;;7.6;77.5
67345;BME280;54230;52.402;6.276;2024-02-26T09:25:00;100540.0;;;7.6;77.3
67345;BME280;54230;52.402;6.276;2024-02-26T09:30:00;100560.0;;;7.6;77.1
67345;BME280;54230;52.402;6.276;2024-02-26T09:35:00;100560.0;;;7.7;77.0
67345;BME280;54230;52.402;6.276;2024-02-26T09:40:00;100550.0;;;7.6;76.9
67345;BME280;54230;52.402;6.276;2024-02-26T09:45:00;100570.0;;;7.5;77.0
67345;BME280;54230;52.402;6.276;2024-02-26T09:50:01;100570.0;;;7.5;77.3
67345;BME280;54230;52.402;6.276;2024-02-26T09:55:00;100590.0;;;7.6;77.4
67345;BME280;54230;52.402;6.276;2024-02-26T10:00:03;100590.0;;;7.6;77.2
67345;BME280;54230;52.402;6.276;2024-02-26T10:05:02;100600.0;;;7.6;77.3
67345;BME280;54230;52.402;6.276;2024-02-26T10:10:00;100600.0;;;7.7;77.5
67345;BME280;54230;52.402;6.276;2024-02-26T10:15:00;100610.0;;;7.8;77.6
67345;BME280;54230;52.402;6.276;2024-02-26T10:25:00;100630.0;;;7.8;77.5
67345;BME280;54230;52.402;6.276;2024-02-26T10:30:02;100630.0;;;7.8;77.3
67345;BME280;54230;52.402;6.276;2024-02-26T10:35:00;100630.0;;;7.8;77.5
67345;BME280;54230;52.402;6.276;2024-02-26T10:40:01;100640.0;;;7.7;77.5
67345;BME280;54230;52.402;6.276;2024-02-26T10:45:00;100650.0;;;7.6;78.1
67345;BME280;54230;52.402;6.276;2024-02-26T10:50:01;100670.0;;;7.8;78.4
67345;BME280;54230;52.402;6.276;2024-02-26T10:55:01;100670.0;;;7.8;78.3
67345;BME280;54230;52.402;6.276;2024-02-26T11:00:02;100680.0;;;7.9;78.0
67345;BME280;54230;52.402;6.276;2024-02-26T11:05:01;100680.0;;;8.0;77.7
67345;BME280;54230;52.402;6.276;2024-02-26T11:10:00;100690.0;;;7.9;77.7
67345;BME280;54230;52.402;6.276;2024-02-26T11:15:00;100690.0;;;7.9;77.3
67345;BME280;54230;52.402;6.276;2024-02-26T11:20:00;100690.0;;;7.9;77.1
67345;BME280;54230;52.402;6.276;2024-02-26T11:25:00;100700.0;;;7.9;76.8
67345;BME280;54230;52.402;6.276;2024-02-26T11:30:01;100700.0;;;7.9;77.0
67345;BME280;54230;52.402;6.276;2024-02-26T11:35:00;100710.0;;;7.9;76.9
67345;BME280;54230;52.402;6.276;2024-02-26T11:40:01;100720.0;;;8.0;76.7
67345;BME280;54230;52.402;6.276;2024-02-26T11:45:00;100720.0;;;8.0;76.4
67345;BME280;54230;52.402;6.276;2024-02-26T11:55:00;100720.0;;;7.7;76.9
67345;BME280;54230;52.402;6.276;2024-02-26T12:05:00;100730.0;;;7.7;77.1
67345;BME280;54230;52.402;6.276;2024-02-26T12:15:01;100730.0;;;8.1;75.4
67345;BME280;54230;52.402;6.276;2024-02-26T12:20:08;100740.0;;;8.1;74.6
67345;BME280;54230;52.402;6.276;2024-02-26T12:25:00;100760.0;;;8.2;74.5
67345;BME280;54230;52.402;6.276;2024-02-26T12:30:00;100750.0;;;8.2;74.2
67345;BME280;54230;52.402;6.276;2024-02-26T12:35:00;100760.0;;;8.2;73.9
67345;BME280;54230;52.402;6.276;2024-02-26T12:40:00;100770.0;;;8.3;73.8
67345;BME280;54230;52.402;6.276;2024-02-26T12:45:00;100770.0;;;8.4;73.2
67345;BME280;54230;52.402;6.276;2024-02-26T12:50:00;100770.0;;;8.4;73.0
67345;BME280;54230;52.402;6.276;2024-02-26T12:55:01;100770.0;;;8.6;73.0
67345;BME280;54230;52.402;6.276;2024-02-26T13:00:01;100780.0;;;8.7;72.4
67345;BME280;54230;52.402;6.276;2024-02-26T13:05:01;100790.0;;;8.8;72.3
67345;BME280;54230;52.402;6.276;2024-02-26T13:10:00;100790.0;;;8.8;71.9
67345;BME280;54230;52.402;6.276;2024-02-26T13:15:00;100800.0;;;8.8;72.0
67345;BME280;54230;52.402;6.276;2024-02-26T13:20:00;100810.0;;;8.8;71.8
67345;BME280;54230;52.402;6.276;2024-02-26T13:25:00;100810.0;;;8.8;71.7
67345;BME280;54230;52.402;6.276;2024-02-26T13:30:02;100810.0;;;8.9;71.6
67345;BME280;54230;52.402;6.276;2024-02-26T13:35:08;100810.0;;;8.7;71.6
67345;BME280;54230;52.402;6.276;2024-02-26T13:40:00;100810.0;;;8.7;71.8
67345;BME280;54230;52.402;6.276;2024-02-26T13:45:00;100820.0;;;8.6;71.8
67345;BME280;54230;52.402;6.276;2024-02-26T13:50:00;100820.0;;;8.6;72.1
67345;BME280;54230;52.402;6.276;2024-02-26T13:55:00;100830.0;;;8.6;71.9
67345;BME280;54230;52.402;6.276;2024-02-26T14:00:01;100840.0;;;8.6;72.0
67345;BME280;54230;52.402;6.276;2024-02-26T14:05:00;100840.0;;;8.5;71.8
67345;BME280;54230;52.402;6.276;2024-02-26T14:10:00;100840.0;;;8.5;71.8
67345;BME280;54230;52.402;6.276;2024-02-26T14:15:00;100860.0;;;8.6;71.8
67345;BME280;54230;52.402;6.276;2024-02-26T14:20:00;100860.0;;;8.8;71.5
67345;BME280;54230;52.402;6.276;2024-02-26T14:25:00;100870.0;;;8.8;71.2
67345;BME280;54230;52.402;6.276;2024-02-26T14:30:00;100870.0;;;8.9;70.9
67345;BME280;54230;52.402;6.276;2024-02-26T14:35:00;100880.0;;;9.0;70.7
67345;BME280;54230;52.402;6.276;2024-02-26T14:40:00;100880.0;;;9.0;70.7
67345;BME280;54230;52.402;6.276;2024-02-26T14:45:00;100890.0;;;9.0;70.4
67345;BME280;54230;52.402;6.276;2024-02-26T14:50:00;100910.0;;;8.9;70.5
67345;BME280;54230;52.402;6.276;2024-02-26T14:55:00;100910.0;;;8.9;70.5
67345;BME280;54230;52.402;6.276;2024-02-26T15:00:00;100910.0;;;8.8;70.7
67345;BME280;54230;52.402;6.276;2024-02-26T15:05:00;100920.0;;;8.8;70.8
67345;BME280;54230;52.402;6.276;2024-02-26T15:10:00;100940.0;;;8.6;70.8
67345;BME280;54230;52.402;6.276;2024-02-26T15:15:00;100930.0;;;8.5;71.1
67345;BME280;54230;52.402;6.276;2024-02-26T15:20:00;100940.0;;;8.5;71.1
67345;BME280;54230;52.402;6.276;2024-02-26T15:25:00;100950.0;;;8.5;71.2
67345;BME280;54230;52.402;6.276;2024-02-26T15:30:00;100960.0;;;8.5;71.1
67345;BME280;54230;52.402;6.276;2024-02-26T15:35:00;100960.0;;;8.4;71.1
67345;BME280;54230;52.402;6.276;2024-02-26T15:40:00;100970.0;;;8.3;71.1
67345;BME280;54230;52.402;6.276;2024-02-26T15:45:00;100990.0;;;8.3;71.0
67345;BME280;54230;52.402;6.276;2024-02-26T15:50:00;101000.0;;;8.2;71.2
67345;BME280;54230;52.402;6.276;2024-02-26T15:55:00;101000.0;;;8.2;71.4
67345;BME280;54230;52.402;6.276;2024-02-26T16:00:00;101010.0;;;8.2;71.3
67345;BME280;54230;52.402;6.276;2024-02-26T16:05:00;101020.0;;;8.2;71.5
67345;BME280;54230;52.402;6.276;2024-02-26T16:10:00;101020.0;;;8.1;71.5
67345;BME280;54230;52.402;6.276;2024-02-26T16:15:00;101030.0;;;8.0;71.7
67345;BME280;54230;52.402;6.276;2024-02-26T16:20:01;101040.0;;;8.0;71.8
67345;BME280;54230;52.402;6.276;2024-02-26T16:25:00;101050.0;;;7.9;72.0
67345;BME280;54230;52.402;6.276;2024-02-26T16:30:00;101050.0;;;7.9;72.0
67345;BME280;54230;52.402;6.276;2024-02-26T16:35:00;101060.0;;;7.8;72.2
67345;BME280;54230;52.402;6.276;2024-02-26T16:40:01;101060.0;;;7.8;72.4
67345;BME280;54230;52.402;6.276;2024-02-26T16:45:00;101070.0;;;7.8;72.5
67345;BME280;54230;52.402;6.276;2024-02-26T16:50:00;101080.0;;;7.7;72.5
67345;BME280;54230;52.402;6.276;2024-02-26T16:55:00;101090.0;;;7.7;72.7
67345;BME280;54230;52.402;6.276;2024-02-26T17:00:01;101100.0;;;7.8;72.8
67345;BME280;54230;52.402;6.276;2024-02-26T17:05:00;101110.0;;;7.7;72.8
67345;BME280;54230;52.402;6.276;2024-02-26T17:10:00;101110.0;;;7.6;73.1
67345;BME280;54230;52.402;6.276;2024-02-26T17:15:00;101120.0;;;7.5;73.1
67345;BME280;54230;52.402;6.276;2024-02-26T17:20:00;101120.0;;;7.5;72.8
67345;BME280;54230;52.402;6.276;2024-02-26T17:25:00;101130.0;;;7.4;73.0
67345;BME280;54230;52.402;6.276;2024-02-26T17:30:00;101140.0;;;7.3;73.3
67345;BME280;54230;52.402;6.276;2024-02-26T17:35:00;101150.0;;;7.2;73.3
67345;BME280;54230;52.402;6.276;2024-02-26T17:40:00;101160.0;;;7.2;73.2
67345;BME280;54230;52.402;6.276;2024-02-26T17:45:00;101170.0;;;7.3;73.3
67345;BME280;54230;52.402;6.276;2024-02-26T17:50:00;101180.0;;;7.1;73.4
67345;BME280;54230;52.402;6.276;2024-02-26T17:55:00;101180.0;;;7.1;73.4
67345;BME280;54230;52.402;6.276;2024-02-26T18:00:00;101210.0;;;7.1;73.5
67345;BME280;54230;52.402;6.276;2024-02-26T18:05:00;101210.0;;;7.1;73.4
67345;BME280;54230;52.402;6.276;2024-02-26T18:10:00;101220.0;;;7.0;73.6
67345;BME280;54230;52.402;6.276;2024-02-26T18:15:00;101220.0;;;7.0;73.6
67345;BME280;54230;52.402;6.276;2024-02-26T18:20:00;101220.0;;;7.0;73.6
67345;BME280;54230;52.402;6.276;2024-02-26T18:25:00;101240.0;;;7.0;73.7
67345;BME280;54230;52.402;6.276;2024-02-26T18:30:01;101250.0;;;6.9;73.9
67345;BME280;54230;52.402;6.276;2024-02-26T18:35:00;101260.0;;;6.8;73.9
67345;BME280;54230;52.402;6.276;2024-02-26T18:40:00;101280.0;;;6.8;74.1
67345;BME280;54230;52.402;6.276;2024-02-26T18:45:00;101280.0;;;6.7;74.3
67345;BME280;54230;52.402;6.276;2024-02-26T18:50:00;101290.0;;;6.7;74.4
67345;BME280;54230;52.402;6.276;2024-02-26T18:55:00;101290.0;;;6.6;74.5
67345;BME280;54230;52.402;6.276;2024-02-26T19:00:00;101310.0;;;6.5;74.7
67345;BME280;54230;52.402;6.276;2024-02-26T19:05:00;101310.0;;;6.4;74.9
67345;BME280;54230;52.402;6.276;2024-02-26T19:10:00;101320.0;;;6.4;74.9
67345;BME280;54230;52.402;6.276;2024-02-26T19:15:00;101340.0;;;6.4;74.9
67345;BME280;54230;52.402;6.276;2024-02-26T19:20:00;101340.0;;;6.3;75.1
67345;BME280;54230;52.402;6.276;2024-02-26T19:25:00;101340.0;;;6.4;75.2
67345;BME280;54230;52.402;6.276;2024-02-26T19:30:00;101350.0;;;6.5;75.7
67345;BME280;54230;52.402;6.276;2024-02-26T19:35:00;101370.0;;;6.7;76.4
67345;BME280;54230;52.402;6.276;2024-02-26T19:40:00;101380.0;;;6.7;76.4
67345;BME280;54230;52.402;6.276;2024-02-26T19:45:00;101380.0;;;6.7;76.6
67345;BME280;54230;52.402;6.276;2024-02-26T19:50:00;101380.0;;;6.7;76.3
67345;BME280;54230;52.402;6.276;2024-02-26T19:55:00;101390.0;;;6.7;76.3
67345;BME280;54230;52.402;6.276;2024-02-26T20:00:00;101400.0;;;6.7;76.7
67345;BME280;54230;52.402;6.276;2024-02-26T20:05:00;101410.0;;;6.7;76.6
67345;BME280;54230;52.402;6.276;2024-02-26T20:10:00;101410.0;;;6.7;76.7
67345;BME280;54230;52.402;6.276;2024-02-26T20:15:00;101430.0;;;6.7;76.8
67345;BME280;54230;52.402;6.276;2024-02-26T20:20:00;101440.0;;;6.8;76.5
67345;BME280;54230;52.402;6.276;2024-02-26T20:25:00;101450.0;;;6.9;76.4
67345;BME280;54230;52.402;6.276;2024-02-26T20:30:00;101450.0;;;6.7;76.5
67345;BME280;54230;52.402;6.276;2024-02-26T20:35:00;101460.0;;;6.7;76.2
67345;BME280;54230;52.402;6.276;2024-02-26T20:40:00;101460.0;;;6.6;76.1
67345;BME280;54230;52.402;6.276;2024-02-26T20:45:00;101470.0;;;6.5;76.2
67345;BME280;54230;52.402;6.276;2024-02-26T20:50:00;101470.0;;;6.5;76.1
67345;BME280;54230;52.402;6.276;2024-02-26T20:55:00;101480.0;;;6.5;76.0
67345;BME280;54230;52.402;6.276;2024-02-26T21:00:00;101480.0;;;6.5;76.1
67345;BME280;54230;52.402;6.276;2024-02-26T21:05:00;101480.0;;;6.4;76.1
67345;BME280;54230;52.402;6.276;2024-02-26T21:10:00;101490.0;;;6.4;76.1
67345;BME280;54230;52.402;6.276;2024-02-26T21:15:00;101500.0;;;6.4;76.1
67345;BME280;54230;52.402;6.276;2024-02-26T21:20:00;101500.0;;;6.3;76.3
67345;BME280;54230;52.402;6.276;2024-02-26T21:25:00;101520.0;;;6.3;76.4
67345;BME280;54230;52.402;6.276;2024-02-26T21:30:00;101530.0;;;6.2;76.5
67345;BME280;54230;52.402;6.276;2024-02-26T21:35:00;101560.0;;;6.0;76.3
67345;BME280;54230;52.402;6.276;2024-02-26T21:40:01;101560.0;;;5.9;76.5
67345;BME280;54230;52.402;6.276;2024-02-26T21:45:00;101550.0;;;5.7;76.6
67345;BME280;54230;52.402;6.276;2024-02-26T21:50:00;101560.0;;;5.7;76.9
67345;BME280;54230;52.402;6.276;2024-02-26T21:55:00;101560.0;;;5.6;77.1
67345;BME280;54230;52.402;6.276;2024-02-26T22:00:00;101570.0;;;5.6;77.2
67345;BME280;54230;52.402;6.276;2024-02-26T22:05:00;101560.0;;;5.6;77.1
67345;BME280;54230;52.402;6.276;2024-02-26T22:10:00;101560.0;;;5.6;77.4
67345;BME280;54230;52.402;6.276;2024-02-26T22:15:00;101580.0;;;5.6;77.5
67345;BME280;54230;52.402;6.276;2024-02-26T22:20:00;101570.0;;;5.6;77.5
67345;BME280;54230;52.402;6.276;2024-02-26T22:25:00;101570.0;;;5.5;77.5
67345;BME280;54230;52.402;6.276;2024-02-26T22:30:00;101570.0;;;5.5;77.7
67345;BME280;54230;52.402;6.276;2024-02-26T22:35:00;101580.0;;;5.5;77.9
67345;BME280;54230;52.402;6.276;2024-02-26T22:40:00;101580.0;;;5.5;78.0
67345;BME280;54230;52.402;6.276;2024-02-26T22:45:00;101580.0;;;5.5;78.2
67345;BME280;54230;52.402;6.276;2024-02-26T22:50:00;101590.0;;;5.4;78.2
67345;BME280;54230;52.402;6.276;2024-02-26T22:55:00;101590.0;;;5.4;78.3
67345;BME280;54230;52.402;6.276;2024-02-26T23:00:00;101600.0;;;5.4;78.4
67345;BME280;54230;52.402;6.276;2024-02-26T23:05:00;101600.0;;;5.4;78.0
67345;BME280;54230;52.402;6.276;2024-02-26T23:10:00;101610.0;;;5.4;78.1
67345;BME280;54230;52.402;6.276;2024-02-26T23:15:00;101610.0;;;5.4;78.3
67345;BME280;54230;52.402;6.276;2024-02-26T23:20:00;101620.0;;;5.4;78.4
67345;BME280;54230;52.402;6.276;2024-02-26T23:25:00;101630.0;;;5.4;78.5
67345;BME280;54230;52.402;6.276;2024-02-26T23:30:00;101630.0;;;5.4;78.5
67345;BME280;54230;52.402;6.276;2024-02-26T23:35:00;101630.0;;;5.4;78.4
67345;BME280;54230;52.402;6.276;2024-02-26T23:40:00;101640.0;;;5.3;78.7
67345;BME280;54230;52.402;6.276;2024-02-26T23:45:00;101650.0;;;5.3;78.7
67345;BME280;54230;52.402;6.276;2024-02-26T23:50:00;101650.0;;;5.3;78.7
67345;BME280;54230;52.402;6.276;2024-02-26T23:55:00;101650.0;;;5.3;78.8
